createdAt,value
2022-10-14T00:02:18.493Z,98769.91
2022-10-14T00:04:45.097Z,98765.41
2022-10-14T00:07:11.687Z,98767.00
2022-10-14T00:09:39.924Z,98771.28
2022-10-14T00:12:06.426Z,98773.97
2022-10-14T00:14:32.866Z,98769.66
2022-10-14T00:16:59.455Z,98766.38
2022-10-14T00:19:26.023Z,98763.91
2022-10-14T00:21:52.584Z,98765.78
2022-10-14T00:24:19.071Z,98765.72
2022-10-14T00:26:46.065Z,98766.06
2022-10-14T00:29:15.254Z,98766.28
2022-10-14T00:31:41.857Z,98771.13
2022-10-14T00:34:08.369Z,98765.72
2022-10-14T00:36:34.831Z,98768.75
2022-10-14T00:39:01.380Z,98761.69
2022-10-14T00:41:33.151Z,98761.50
2022-10-14T00:44:02.613Z,98760.41
2022-10-14T00:46:35.660Z,98756.00
2022-10-14T00:49:15.755Z,98753.78
2022-10-14T00:51:47.001Z,98751.41
2022-10-14T00:54:16.489Z,98753.78
2022-10-14T00:56:45.202Z,98754.28
2022-10-14T00:59:12.277Z,98747.25
2022-10-14T01:01:38.880Z,98747.84
2022-10-14T01:04:05.416Z,98749.03
2022-10-14T01:06:37.961Z,98737.19
2022-10-14T01:09:20.205Z,98743.41
2022-10-14T01:12:35.648Z,98734.53
2022-10-14T01:15:22.593Z,98736.09
2022-10-14T01:17:57.377Z,98734.47
2022-10-14T01:20:45.436Z,98733.44
2022-10-14T01:23:45.547Z,98732.06
2022-10-14T01:26:33.930Z,98724.16
2022-10-14T01:29:25.837Z,98720.06
2022-10-14T01:32:02.077Z,98714.84
2022-10-14T01:34:38.573Z,98721.34
2022-10-14T01:37:10.858Z,98720.19
2022-10-14T01:39:44.772Z,98715.41
2022-10-14T01:42:23.214Z,98719.38
2022-10-14T01:44:58.965Z,98718.00
2022-10-14T01:47:30.424Z,98720.81
2022-10-14T01:50:09.895Z,98719.22
2022-10-14T01:52:46.312Z,98727.59
2022-10-14T01:55:17.809Z,98723.53
2022-10-14T01:57:47.422Z,98712.13
2022-10-14T02:00:14.453Z,98720.72
2022-10-14T02:02:41.335Z,98728.06
2022-10-14T02:05:21.063Z,98725.38
2022-10-14T02:08:04.808Z,98720.75
2022-10-14T02:10:44.608Z,98716.50
2022-10-14T02:13:39.570Z,98712.53
2022-10-14T02:16:09.089Z,98701.91
2022-10-14T02:18:42.464Z,98698.69
2022-10-14T02:21:24.487Z,98695.44
2022-10-14T02:24:01.728Z,98697.53
2022-10-14T02:26:30.591Z,98699.63
2022-10-14T02:28:58.186Z,98699.63
2022-10-14T02:31:25.856Z,98696.91
2022-10-14T02:33:56.903Z,98681.19
2022-10-14T02:36:25.652Z,98691.16
2022-10-14T02:38:55.209Z,98681.75
2022-10-14T02:41:24.545Z,98678.00
2022-10-14T02:43:51.415Z,98677.38
2022-10-14T02:46:21.331Z,98682.56
2022-10-14T02:48:49.094Z,98667.09
2022-10-14T02:51:16.363Z,98674.22
2022-10-14T02:53:42.929Z,98673.66
2022-10-14T02:56:13.891Z,98672.31
2022-10-14T02:58:40.570Z,98667.47
2022-10-14T03:01:07.215Z,98667.69
2022-10-14T03:03:33.843Z,98663.69
2022-10-14T03:06:00.392Z,98667.72
2022-10-14T03:08:26.887Z,98660.09
2022-10-14T03:10:53.540Z,98647.31
2022-10-14T03:13:20.014Z,98647.56
2022-10-14T03:15:49.887Z,98640.03
2022-10-14T03:18:16.901Z,98637.28
2022-10-14T03:20:47.343Z,98641.09
2022-10-14T03:23:14.731Z,98632.97
2022-10-14T03:25:44.168Z,98636.75
2022-10-14T03:28:10.979Z,98635.22
2022-10-14T03:30:37.539Z,98640.56
2022-10-14T03:33:04.169Z,98633.78
2022-10-14T03:35:30.743Z,98631.88
2022-10-14T03:37:59.424Z,98629.19
2022-10-14T03:40:25.888Z,98626.47
2022-10-14T03:42:52.351Z,98631.66
2022-10-14T03:45:18.825Z,98631.41
2022-10-14T03:47:45.298Z,98630.84
2022-10-14T03:50:11.763Z,98628.09
2022-10-14T03:52:43.633Z,98633.03
2022-10-14T03:55:13.437Z,98631.41
2022-10-14T03:57:39.975Z,98636.88
2022-10-14T04:00:07.291Z,98622.03
2022-10-14T04:02:33.803Z,98619.88
2022-10-14T04:05:01.254Z,98618.00
2022-10-14T04:07:27.915Z,98611.53
2022-10-14T04:09:54.389Z,98613.66
2022-10-14T04:12:21.560Z,98605.03
2022-10-14T04:14:48.253Z,98605.59
2022-10-14T04:17:15.634Z,98596.66
2022-10-14T04:19:42.118Z,98602.84
2022-10-14T04:22:10.186Z,98588.31
2022-10-14T04:24:36.738Z,98586.94
2022-10-14T04:27:03.343Z,98582.00
2022-10-14T04:29:29.869Z,98582.78
2022-10-14T04:31:56.382Z,98577.06
2022-10-14T04:34:23.108Z,98573.06
2022-10-14T04:36:49.583Z,98574.19
2022-10-14T04:39:16.101Z,98567.13
2022-10-14T04:41:42.575Z,98569.59
2022-10-14T04:44:09.139Z,98569.88
2022-10-14T04:46:35.711Z,98562.25
2022-10-14T04:49:02.244Z,98556.00
2022-10-14T04:51:28.739Z,98549.03
2022-10-14T04:53:55.204Z,98538.69
2022-10-14T04:56:21.731Z,98545.75
2022-10-14T04:58:48.214Z,98543.13
2022-10-14T05:01:14.753Z,98535.72
2022-10-14T05:03:41.223Z,98538.38
2022-10-14T05:06:07.748Z,98537.81
2022-10-14T05:08:34.243Z,98529.19
2022-10-14T05:11:00.844Z,98534.63
2022-10-14T05:13:27.322Z,98535.97
2022-10-14T05:15:53.806Z,98529.72
2022-10-14T05:18:20.312Z,98527.53
2022-10-14T05:20:46.799Z,98523.75
2022-10-14T05:23:13.475Z,98531.38
2022-10-14T05:25:39.938Z,98529.25
2022-10-14T05:28:06.513Z,98525.50
2022-10-14T05:30:34.809Z,98524.41
2022-10-14T05:33:01.715Z,98522.47
2022-10-14T05:35:53.612Z,98527.16
2022-10-14T05:38:14.715Z,98520.09
2022-10-14T05:40:41.334Z,98515.31
2022-10-14T05:43:07.834Z,98516.34
2022-10-14T05:45:34.409Z,98517.97
2022-10-14T05:48:00.819Z,98509.38
2022-10-14T05:50:27.256Z,98503.97
2022-10-14T05:52:53.718Z,98513.97
2022-10-14T05:55:20.174Z,98510.97
2022-10-14T05:57:46.648Z,98503.91
2022-10-14T06:00:14.042Z,98501.53
2022-10-14T06:02:40.697Z,98490.13
2022-10-14T06:05:07.587Z,98499.59
2022-10-14T06:07:35.729Z,98505.22
2022-10-14T06:10:02.159Z,98506.03
2022-10-14T06:12:28.864Z,98499.00
2022-10-14T06:14:55.307Z,98502.00
2022-10-14T06:17:21.781Z,98506.28
2022-10-14T06:19:48.241Z,98507.44
2022-10-14T06:22:14.707Z,98515.50
2022-10-14T06:24:41.203Z,98505.03
2022-10-14T06:27:07.657Z,98506.13
2022-10-14T06:29:37.983Z,98511.28
2022-10-14T06:32:09.435Z,98513.13
2022-10-14T06:34:36.277Z,98512.63
2022-10-14T06:37:02.798Z,98520.16
2022-10-14T06:39:29.242Z,98516.16
2022-10-14T06:41:55.735Z,98518.59
2022-10-14T06:44:22.181Z,98520.22
2022-10-14T06:46:48.625Z,98510.00
2022-10-14T06:49:15.202Z,98511.09
2022-10-14T06:51:41.685Z,98515.44
2022-10-14T06:54:08.241Z,98509.53
2022-10-14T06:56:35.031Z,98512.78
2022-10-14T06:59:01.721Z,98506.06
2022-10-14T07:01:28.271Z,98520.69
2022-10-14T07:03:56.762Z,98525.81
2022-10-14T07:06:23.804Z,98518.28
2022-10-14T07:08:50.272Z,98521.53
2022-10-14T07:11:16.754Z,98524.25
2022-10-14T07:13:43.174Z,98510.41
2022-10-14T07:16:09.647Z,98522.09
2022-10-14T07:18:36.146Z,98514.84
2022-10-14T07:21:04.358Z,98511.63
2022-10-14T07:23:30.852Z,98520.53
2022-10-14T07:25:58.143Z,98516.72
2022-10-14T07:28:24.753Z,98505.09
2022-10-14T07:31:03.418Z,98522.69
2022-10-14T07:33:30.457Z,98511.63
2022-10-14T07:36:04.621Z,98521.66
2022-10-14T07:38:31.552Z,98520.59
2022-10-14T07:41:04.397Z,98531.94
2022-10-14T07:43:32.997Z,98525.97
2022-10-14T07:46:05.183Z,98537.88
2022-10-14T07:48:45.257Z,98527.63
2022-10-14T07:51:19.931Z,98539.22
2022-10-14T07:53:48.194Z,98533.56
2022-10-14T07:56:14.799Z,98532.75
2022-10-14T07:58:44.502Z,98524.38
2022-10-14T08:01:11.166Z,98524.63
2022-10-14T08:03:37.686Z,98517.84
2022-10-14T08:06:05.550Z,98523.25
2022-10-14T08:08:32.855Z,98528.91
2022-10-14T08:11:07.603Z,98526.50
2022-10-14T08:13:35.320Z,98527.00
2022-10-14T08:16:02.678Z,98526.44
2022-10-14T08:18:29.639Z,98519.34
2022-10-14T08:20:56.095Z,98518.78
2022-10-14T08:23:22.635Z,98513.94
2022-10-14T08:25:49.847Z,98519.59
2022-10-14T08:28:16.405Z,98513.91
2022-10-14T08:30:42.937Z,98521.44
2022-10-14T08:33:09.362Z,98520.63
2022-10-14T08:35:35.813Z,98518.97
2022-10-14T08:38:05.577Z,98524.28
2022-10-14T08:40:46.517Z,98529.28
2022-10-14T08:43:36.271Z,98518.63
2022-10-14T08:46:13.979Z,98515.59
2022-10-14T08:48:41.262Z,98518.63
2022-10-14T08:51:13.184Z,98518.78
2022-10-14T08:53:46.247Z,98515.53
2022-10-14T08:56:14.718Z,98512.91
2022-10-14T08:58:49.006Z,98518.34
2022-10-14T09:01:23.377Z,98518.28
2022-10-14T09:03:53.074Z,98520.81
2022-10-14T09:06:25.403Z,98534.41
2022-10-14T09:08:56.043Z,98534.19
2022-10-14T09:11:27.780Z,98532.59
2022-10-14T09:13:59.763Z,98545.66
2022-10-14T09:16:31.196Z,98544.84
2022-10-14T09:19:03.740Z,98545.72
2022-10-14T09:21:54.501Z,98539.53
2022-10-14T09:24:35.828Z,98543.66
2022-10-14T09:27:21.752Z,98539.03
2022-10-14T09:30:01.783Z,98547.63
2022-10-14T09:32:49.954Z,98538.38
2022-10-14T09:35:36.655Z,98535.94
2022-10-14T09:38:03.563Z,98525.16
2022-10-14T09:40:31.453Z,98533.78
2022-10-14T09:43:10.079Z,98532.19
2022-10-14T09:46:11.008Z,98527.84
2022-10-14T09:48:42.861Z,98533.78
2022-10-14T09:51:18.323Z,98528.91
2022-10-14T09:53:49.264Z,98520.22
2022-10-14T09:56:17.980Z,98526.75
2022-10-14T09:58:56.457Z,98512.63
2022-10-14T10:01:27.149Z,98515.84
2022-10-14T10:03:54.848Z,98511.41
2022-10-14T10:06:27.668Z,98514.06
2022-10-14T10:08:55.984Z,98520.59
2022-10-14T10:11:37.609Z,98506.22
2022-10-14T10:14:25.560Z,98520.56
2022-10-14T10:17:15.358Z,98512.44
2022-10-14T10:19:44.125Z,98508.38
2022-10-14T10:22:31.602Z,98510.50
2022-10-14T10:25:01.124Z,98506.63
2022-10-14T10:27:36.616Z,98503.50
2022-10-14T10:30:21.519Z,98489.97
2022-10-14T10:33:08.091Z,98491.13
2022-10-14T10:35:52.544Z,98500.50
2022-10-14T10:38:23.985Z,98500.47
2022-10-14T10:40:53.085Z,98504.31
2022-10-14T10:43:28.703Z,98496.50
2022-10-14T10:46:28.325Z,98491.06
2022-10-14T10:49:23.780Z,98479.59
2022-10-14T10:51:53.323Z,98479.31
2022-10-14T10:54:45.121Z,98474.59
2022-10-14T10:57:41.846Z,98472.53
2022-10-14T11:00:11.010Z,98468.38
2022-10-14T11:03:08.110Z,98452.56
2022-10-14T11:06:54.859Z,98451.59
2022-10-14T11:09:55.326Z,98451.22
2022-10-14T11:12:24.653Z,98441.13
2022-10-14T11:15:12.895Z,98442.66
2022-10-14T11:17:52.577Z,98433.09
2022-10-14T11:20:37.150Z,98440.34
2022-10-14T11:23:57.099Z,98437.72
2022-10-14T11:27:01.271Z,98420.09
2022-10-14T11:29:43.039Z,98429.59
2022-10-14T11:32:25.442Z,98421.66
2022-10-14T11:35:18.322Z,98419.03
2022-10-14T11:37:53.158Z,98411.50
2022-10-14T11:40:42.945Z,98422.25
2022-10-14T11:43:19.538Z,98417.78
2022-10-14T11:46:11.761Z,98423.50
2022-10-14T11:48:51.201Z,98419.50
2022-10-14T11:51:35.568Z,98420.84
2022-10-14T11:54:14.993Z,98425.91
2022-10-14T11:56:45.729Z,98429.06
2022-10-14T11:59:30.677Z,98426.66
2022-10-14T12:02:10.860Z,98424.44
2022-10-14T12:04:43.826Z,98427.22
2022-10-14T12:07:22.835Z,98427.56
2022-10-14T12:09:59.123Z,98424.75
2022-10-14T12:12:29.136Z,98431.81
2022-10-14T12:15:04.103Z,98421.97
2022-10-14T12:17:34.087Z,98416.97
2022-10-14T12:20:15.032Z,98416.75
2022-10-14T12:22:41.792Z,98410.94
2022-10-14T12:25:13.979Z,98404.09
2022-10-14T12:27:41.155Z,98408.75
2022-10-14T12:30:38.526Z,98406.44
2022-10-14T12:33:08.675Z,98406.06
2022-10-14T12:35:59.094Z,98403.03
2022-10-14T12:38:28.999Z,98400.28
2022-10-14T12:41:18.106Z,98397.56
2022-10-14T12:44:03.166Z,98392.47
2022-10-14T12:46:31.514Z,98396.22
2022-10-14T12:48:59.715Z,98396.81
2022-10-14T12:51:27.370Z,98393.72
2022-10-14T12:54:04.869Z,98393.81
2022-10-14T12:56:39.109Z,98401.44
2022-10-14T12:59:09.213Z,98391.44
2022-10-14T13:01:36.699Z,98383.69
2022-10-14T13:04:19.996Z,98393.56
2022-10-14T13:07:35.347Z,98388.25
2022-10-14T13:10:26.990Z,98389.88
2022-10-14T13:12:54.063Z,98399.94
2022-10-14T13:15:34.773Z,98402.06
2022-10-14T13:18:34.501Z,98414.97
2022-10-14T13:21:01.345Z,98418.25
2022-10-14T13:23:30.690Z,98418.56
2022-10-14T13:26:35.616Z,98427.63
2022-10-14T13:29:20.642Z,98426.81
2022-10-14T13:32:02.359Z,98421.09
2022-10-14T13:34:47.758Z,98423.22
2022-10-14T13:37:29.473Z,98420.25
2022-10-14T13:39:59.742Z,98422.19
2022-10-14T13:42:34.706Z,98419.50
2022-10-14T13:45:10.277Z,98431.47
2022-10-14T13:47:36.926Z,98431.47
2022-10-14T13:50:04.814Z,98428.81
2022-10-14T13:52:33.683Z,98427.47
2022-10-14T13:55:17.086Z,98433.19
2022-10-14T13:58:10.915Z,98440.28
2022-10-14T14:00:43.324Z,98432.72
2022-10-14T14:03:24.646Z,98441.13
2022-10-14T14:05:52.304Z,98445.25
2022-10-14T14:08:41.828Z,98450.94
2022-10-14T14:11:17.701Z,98443.91
2022-10-14T14:14:00.310Z,98446.31
2022-10-14T14:16:31.956Z,98442.72
2022-10-14T14:19:14.163Z,98438.66
2022-10-14T14:21:40.773Z,98438.06
2022-10-14T14:24:17.853Z,98429.38
2022-10-14T14:26:44.585Z,98425.84
2022-10-14T14:29:24.368Z,98417.44
2022-10-14T14:32:05.952Z,98415.72
2022-10-14T14:34:35.942Z,98408.75
2022-10-14T14:37:17.612Z,98408.09
2022-10-14T14:40:02.832Z,98404.34
2022-10-14T14:42:36.076Z,98404.88
2022-10-14T14:45:18.006Z,98403.03
2022-10-14T14:47:45.790Z,98394.97
2022-10-14T14:50:30.031Z,98393.28
2022-10-14T14:53:02.765Z,98393.25
2022-10-14T14:55:48.197Z,98386.94
2022-10-14T14:58:29.971Z,98379.31
2022-10-14T15:00:56.891Z,98381.22
2022-10-14T15:03:27.321Z,98383.47
2022-10-14T15:06:02.946Z,98377.28
2022-10-14T15:08:36.855Z,98378.69
2022-10-14T15:11:04.220Z,98385.22
2022-10-14T15:13:39.773Z,98378.88
2022-10-14T15:16:07.649Z,98380.81
2022-10-14T15:18:37.435Z,98377.81
2022-10-14T15:21:15.522Z,98379.50
2022-10-14T15:23:49.166Z,98377.00
2022-10-14T15:26:27.761Z,98377.72
2022-10-14T15:29:05.167Z,98372.66
2022-10-14T15:31:31.944Z,98369.97
2022-10-14T15:33:58.461Z,98370.31
2022-10-14T15:36:33.518Z,98362.69
2022-10-14T15:39:01.452Z,98366.44
2022-10-14T15:41:28.785Z,98361.03
2022-10-14T15:43:55.288Z,98366.00
2022-10-14T15:46:41.639Z,98358.41
2022-10-14T15:49:23.501Z,98352.47
2022-10-14T15:51:49.941Z,98348.75
2022-10-14T15:54:16.821Z,98344.47
2022-10-14T15:56:43.613Z,98343.13
2022-10-14T15:59:10.122Z,98341.88
2022-10-14T16:01:38.072Z,98343.28
2022-10-14T16:04:04.882Z,98336.50
2022-10-14T16:06:32.737Z,98329.75
2022-10-14T16:08:59.438Z,98325.81
2022-10-14T16:11:28.143Z,98300.59
2022-10-14T16:13:55.086Z,98307.63
2022-10-14T16:16:27.075Z,98292.03
2022-10-14T16:18:53.588Z,98285.81
2022-10-14T16:21:20.204Z,98279.31
2022-10-14T16:23:56.994Z,98271.72
2022-10-14T16:26:24.986Z,98269.59
2022-10-14T16:28:52.494Z,98276.66
2022-10-14T16:31:19.158Z,98269.53
2022-10-14T16:33:46.212Z,98269.34
2022-10-14T16:36:16.063Z,98268.53
2022-10-14T16:38:42.842Z,98271.53
2022-10-14T16:41:10.282Z,98258.84
2022-10-14T16:43:36.945Z,98255.03
2022-10-14T16:46:04.511Z,98258.84
2022-10-14T16:48:33.094Z,98258.84
2022-10-14T16:51:00.092Z,98257.78
2022-10-14T16:53:41.036Z,98247.50
2022-10-14T16:56:31.901Z,98248.56
2022-10-14T16:58:59.549Z,98242.09
2022-10-14T17:01:26.185Z,98246.44
2022-10-14T17:03:55.454Z,98247.00
2022-10-14T17:06:24.140Z,98243.47
2022-10-14T17:08:51.384Z,98251.31
2022-10-14T17:11:18.804Z,98245.09
2022-10-14T17:13:45.674Z,98243.28
2022-10-14T17:16:12.315Z,98250.59
2022-10-14T17:18:38.861Z,98245.66
2022-10-14T17:21:07.722Z,98246.44
2022-10-14T17:23:35.416Z,98241.03
2022-10-14T17:26:02.999Z,98250.88
2022-10-14T17:28:30.339Z,98248.13
2022-10-14T17:30:57.573Z,98248.44
2022-10-14T17:33:26.127Z,98251.41
2022-10-14T17:35:57.250Z,98250.34
2022-10-14T17:38:25.426Z,98260.63
2022-10-14T17:40:53.195Z,98250.28
2022-10-14T17:43:20.535Z,98246.22
2022-10-14T17:45:47.004Z,98250.28
2022-10-14T17:48:13.567Z,98250.28
2022-10-14T17:50:40.413Z,98253.28
2022-10-14T17:53:12.302Z,98248.13
2022-10-14T17:55:39.112Z,98250.84
2022-10-14T17:58:05.925Z,98253.31
2022-10-14T18:00:32.685Z,98259.50
2022-10-14T18:03:00.473Z,98246.47
2022-10-14T18:05:27.014Z,98253.28
2022-10-14T18:07:53.720Z,98248.13
2022-10-14T18:10:20.213Z,98251.38
2022-10-14T18:12:46.730Z,98251.97
2022-10-14T18:15:13.156Z,98242.81
2022-10-14T18:17:39.671Z,98238.44
2022-10-14T18:20:06.719Z,98231.38
2022-10-14T18:22:33.403Z,98232.19
2022-10-14T18:25:00.032Z,98231.41
2022-10-14T18:27:26.525Z,98226.50
2022-10-14T18:29:53.031Z,98229.97
2022-10-14T18:32:19.751Z,98234.56
2022-10-14T18:34:46.406Z,98232.91
2022-10-14T18:37:12.847Z,98222.69
2022-10-14T18:39:39.398Z,98221.34
2022-10-14T18:42:05.837Z,98220.59
2022-10-14T18:44:32.500Z,98224.50
2022-10-14T18:46:59.103Z,98222.25
2022-10-14T18:49:25.536Z,98220.59
2022-10-14T18:51:53.577Z,98216.53
2022-10-14T18:54:21.053Z,98230.13
2022-10-14T18:56:47.730Z,98220.91
2022-10-14T18:59:17.979Z,98221.16
2022-10-14T19:01:46.149Z,98221.94
2022-10-14T19:04:15.447Z,98219.25
2022-10-14T19:06:44.929Z,98212.47
2022-10-14T19:09:12.727Z,98212.44
2022-10-14T19:11:39.274Z,98213.28
2022-10-14T19:14:05.758Z,98205.47
2022-10-14T19:16:35.723Z,98213.06
2022-10-14T19:19:04.444Z,98210.34
2022-10-14T19:21:31.258Z,98207.91
2022-10-14T19:24:01.333Z,98200.34
2022-10-14T19:26:31.105Z,98201.41
2022-10-14T19:28:59.058Z,98200.63
2022-10-14T19:31:28.146Z,98190.34
2022-10-14T19:33:55.871Z,98188.44
2022-10-14T19:36:24.757Z,98191.66
2022-10-14T19:38:59.682Z,98189.13
2022-10-14T19:41:28.200Z,98182.66
2022-10-14T19:43:56.734Z,98186.97
2022-10-14T19:46:26.585Z,98188.91
2022-10-14T19:48:56.012Z,98178.03
2022-10-14T19:51:22.962Z,98176.13
2022-10-14T19:53:49.508Z,98181.50
2022-10-14T19:56:16.341Z,98169.63
2022-10-14T19:58:44.817Z,98175.13
2022-10-14T20:01:14.821Z,98169.72
2022-10-14T20:03:42.215Z,98179.97
2022-10-14T20:06:09.740Z,98182.94
2022-10-14T20:08:37.055Z,98178.31
2022-10-14T20:11:05.788Z,98174.53
2022-10-14T20:13:32.798Z,98177.72
2022-10-14T20:16:01.584Z,98179.09
2022-10-14T20:18:29.671Z,98171.88
2022-10-14T20:20:57.493Z,98187.63
2022-10-14T20:23:25.236Z,98178.09
2022-10-14T20:25:52.285Z,98183.19
2022-10-14T20:28:19.614Z,98166.41
2022-10-14T20:30:47.778Z,98161.78
2022-10-14T20:33:14.301Z,98157.19
2022-10-14T20:35:40.855Z,98156.31
2022-10-14T20:38:07.486Z,98155.47
2022-10-14T20:40:35.616Z,98147.13
2022-10-14T20:43:03.244Z,98147.72
2022-10-14T20:45:29.733Z,98143.66
2022-10-14T20:47:56.210Z,98149.97
2022-10-14T20:50:23.144Z,98145.69
2022-10-14T20:52:49.864Z,98142.09
2022-10-14T20:55:16.318Z,98145.91
2022-10-14T20:57:42.736Z,98147.59
2022-10-14T21:00:09.942Z,98141.09
2022-10-14T21:02:36.501Z,98135.69
2022-10-14T21:05:03.100Z,98139.38
2022-10-14T21:07:29.555Z,98128.56
2022-10-14T21:09:56.007Z,98133.44
2022-10-14T21:12:22.627Z,98135.34
2022-10-14T21:14:49.502Z,98125.25
2022-10-14T21:17:16.075Z,98130.66
2022-10-14T21:19:42.500Z,98118.75
2022-10-14T21:22:09.843Z,98131.22
2022-10-14T21:24:36.353Z,98120.88
2022-10-14T21:27:02.871Z,98121.94
2022-10-14T21:29:29.452Z,98121.94
2022-10-14T21:31:55.926Z,98124.91
2022-10-14T21:34:24.862Z,98122.53
2022-10-14T21:36:51.309Z,98119.25
2022-10-14T21:39:18.480Z,98127.34
2022-10-14T21:41:45.945Z,98117.00
2022-10-14T21:44:17.869Z,98111.59
2022-10-14T21:46:44.400Z,98101.31
2022-10-14T21:49:11.361Z,98100.47
2022-10-14T21:51:38.216Z,98108.34
2022-10-14T21:54:05.426Z,98108.34
2022-10-14T21:56:32.103Z,98091.28
2022-10-14T21:58:58.778Z,98096.94
2022-10-14T22:01:27.834Z,98110.00
2022-10-14T22:04:05.623Z,98098.06
2022-10-14T22:06:34.462Z,98095.91
2022-10-14T22:09:03.701Z,98099.63
2022-10-14T22:11:39.702Z,98102.56
2022-10-14T22:14:10.818Z,98102.53
2022-10-14T22:16:37.394Z,98094.75
2022-10-14T22:19:05.319Z,98094.59
2022-10-14T22:21:34.556Z,98082.97
2022-10-14T22:24:01.536Z,98075.69
2022-10-14T22:26:29.854Z,98085.38
2022-10-14T22:29:08.308Z,98091.94
2022-10-14T22:31:35.143Z,98084.91
2022-10-14T22:34:04.525Z,98081.69
2022-10-14T22:36:32.274Z,98090.38
2022-10-14T22:39:00.882Z,98090.66
2022-10-14T22:41:32.344Z,98086.06
2022-10-14T22:44:01.788Z,98088.69
2022-10-14T22:46:30.868Z,98089.00
2022-10-14T22:48:58.503Z,98094.66
2022-10-14T22:51:28.412Z,98102.16
2022-10-14T22:53:55.067Z,98097.50
2022-10-14T22:56:23.984Z,98103.91
2022-10-14T22:58:54.770Z,98099.09
2022-10-14T23:01:23.594Z,98097.50
2022-10-14T23:03:50.482Z,98091.19
2022-10-14T23:06:17.228Z,98097.97
2022-10-14T23:08:43.717Z,98090.72
2022-10-14T23:11:15.279Z,98095.78
2022-10-14T23:13:41.992Z,98104.44
2022-10-14T23:16:12.569Z,98105.59
2022-10-14T23:18:39.837Z,98104.69
2022-10-14T23:21:13.511Z,98105.22
2022-10-14T23:23:40.391Z,98106.59
2022-10-14T23:26:10.354Z,98114.22
2022-10-14T23:28:38.022Z,98107.78
2022-10-14T23:31:12.613Z,98100.94
2022-10-14T23:33:39.203Z,98101.22
2022-10-14T23:36:07.731Z,98102.88
2022-10-14T23:38:34.544Z,98106.09
2022-10-14T23:41:02.804Z,98105.06
2022-10-14T23:43:29.877Z,98101.25
2022-10-14T23:45:56.359Z,98093.09
2022-10-14T23:48:23.230Z,98099.53
2022-10-14T23:50:49.751Z,98110.38
2022-10-14T23:53:16.930Z,98122.84
2022-10-14T23:55:43.719Z,98115.22
2022-10-14T23:58:10.357Z,98128.19
